sensor_id;sensor_type;location;lat;lon;timestamp;temperature;humidity
37242;DHT22;23135;51.078;12.108;2022-09-09T00:04:12;13.50;99.90
37242;DHT22;23135;51.078;12.108;2022-09-09T00:06:45;13.50;99.90
37242;DHT22;23135;51.078;12.108;2022-09-09T00:14:18;13.50;99.90
37242;DHT22;23135;51.078;12.108;2022-09-09T00:16:54;13.50;99.90
37242;DHT22;23135;51.078;12.108;2022-09-09T00:19:37;13.50;99.90
37242;DHT22;23135;51.078;12.108;2022-09-09T00:22:20;13.40;99.90
37242;DHT22;23135;51.078;12.108;2022-09-09T00:24:55;13.40;99.90
37242;DHT22;23135;51.078;12.108;2022-09-09T00:32:40;13.30;99.90
37242;DHT22;23135;51.078;12.108;2022-09-09T00:35:45;13.40;99.90
37242;DHT22;23135;51.078;12.108;2022-09-09T00:38:24;13.40;99.90
37242;DHT22;23135;51.078;12.108;2022-09-09T00:40:58;13.50;99.90
37242;DHT22;23135;51.078;12.108;2022-09-09T00:43:35;13.50;99.90
37242;DHT22;23135;51.078;12.108;2022-09-09T00:49:32;13.40;99.90
37242;DHT22;23135;51.078;12.108;2022-09-09T00:57:46;13.40;99.90
37242;DHT22;23135;51.078;12.108;2022-09-09T01:00:35;13.40;99.90
37242;DHT22;23135;51.078;12.108;2022-09-09T01:06:02;13.40;99.90
37242;DHT22;23135;51.078;12.108;2022-09-09T01:13:47;13.30;99.90
37242;DHT22;23135;51.078;12.108;2022-09-09T01:16:16;13.30;99.90
37242;DHT22;23135;51.078;12.108;2022-09-09T01:18:50;13.20;99.90
37242;DHT22;23135;51.078;12.108;2022-09-09T01:24:27;13.30;99.90
37242;DHT22;23135;51.078;12.108;2022-09-09T01:27:00;13.40;99.90
37242;DHT22;23135;51.078;12.108;2022-09-09T01:29:26;13.40;99.90
37242;DHT22;23135;51.078;12.108;2022-09-09T01:34:24;13.30;99.90
37242;DHT22;23135;51.078;12.108;2022-09-09T01:39:19;13.30;99.90
37242;DHT22;23135;51.078;12.108;2022-09-09T01:41:45;13.30;99.90
37242;DHT22;23135;51.078;12.108;2022-09-09T01:44:11;13.40;99.90
37242;DHT22;23135;51.078;12.108;2022-09-09T01:46:36;13.40;99.90
37242;DHT22;23135;51.078;12.108;2022-09-09T01:49:04;13.40;99.90
37242;DHT22;23135;51.078;12.108;2022-09-09T01:51:30;13.40;99.90
37242;DHT22;23135;51.078;12.108;2022-09-09T01:53:56;13.40;99.90
37242;DHT22;23135;51.078;12.108;2022-09-09T02:02:04;13.20;99.90
37242;DHT22;23135;51.078;12.108;2022-09-09T02:04:49;13.10;99.90
37242;DHT22;23135;51.078;12.108;2022-09-09T02:10:09;13.20;99.90
37242;DHT22;23135;51.078;12.108;2022-09-09T02:12:40;13.20;99.90
37242;DHT22;23135;51.078;12.108;2022-09-09T02:15:16;13.20;99.90
37242;DHT22;23135;51.078;12.108;2022-09-09T02:17:46;13.10;99.90
37242;DHT22;23135;51.078;12.108;2022-09-09T02:20:15;13.10;99.90
37242;DHT22;23135;51.078;12.108;2022-09-09T02:22:43;13.10;99.90
37242;DHT22;23135;51.078;12.108;2022-09-09T02:25:12;13.00;99.90
37242;DHT22;23135;51.078;12.108;2022-09-09T02:27:41;13.10;99.90
37242;DHT22;23135;51.078;12.108;2022-09-09T02:30:08;13.10;99.90
37242;DHT22;23135;51.078;12.108;2022-09-09T02:32:36;13.00;99.90
37242;DHT22;23135;51.078;12.108;2022-09-09T02:35:09;13.00;99.90
37242;DHT22;23135;51.078;12.108;2022-09-09T02:37:38;13.00;99.90
37242;DHT22;23135;51.078;12.108;2022-09-09T02:40:09;13.00;99.90
37242;DHT22;23135;51.078;12.108;2022-09-09T02:42:40;13.10;99.90
37242;DHT22;23135;51.078;12.108;2022-09-09T02:45:07;13.10;99.90
37242;DHT22;23135;51.078;12.108;2022-09-09T02:47:58;13.00;99.90
37242;DHT22;23135;51.078;12.108;2022-09-09T02:53:29;13.00;99.90
37242;DHT22;23135;51.078;12.108;2022-09-09T02:56:07;13.00;99.90
37242;DHT22;23135;51.078;12.108;2022-09-09T02:58:35;13.10;99.90
37242;DHT22;23135;51.078;12.108;2022-09-09T03:01:02;13.10;99.90
37242;DHT22;23135;51.078;12.108;2022-09-09T03:03:28;13.10;99.90
37242;DHT22;23135;51.078;12.108;2022-09-09T03:05:55;13.10;99.90
37242;DHT22;23135;51.078;12.108;2022-09-09T03:08:22;13.10;99.90
37242;DHT22;23135;51.078;12.108;2022-09-09T03:10:48;13.20;99.90
37242;DHT22;23135;51.078;12.108;2022-09-09T03:13:14;13.20;99.90
37242;DHT22;23135;51.078;12.108;2022-09-09T03:15:41;13.20;99.90
37242;DHT22;23135;51.078;12.108;2022-09-09T03:18:07;13.10;99.90
37242;DHT22;23135;51.078;12.108;2022-09-09T03:20:33;13.10;99.90
37242;DHT22;23135;51.078;12.108;2022-09-09T03:23:00;13.00;99.90
37242;DHT22;23135;51.078;12.108;2022-09-09T03:25:26;13.00;99.90
37242;DHT22;23135;51.078;12.108;2022-09-09T03:27:53;12.90;99.90
37242;DHT22;23135;51.078;12.108;2022-09-09T03:30:24;13.00;99.90
37242;DHT22;23135;51.078;12.108;2022-09-09T03:32:50;12.90;99.90
37242;DHT22;23135;51.078;12.108;2022-09-09T03:35:16;12.90;99.90
37242;DHT22;23135;51.078;12.108;2022-09-09T03:37:42;12.80;99.90
37242;DHT22;23135;51.078;12.108;2022-09-09T03:40:08;12.80;99.90
37242;DHT22;23135;51.078;12.108;2022-09-09T03:42:35;12.80;99.90
37242;DHT22;23135;51.078;12.108;2022-09-09T03:45:05;12.80;99.90
37242;DHT22;23135;51.078;12.108;2022-09-09T03:47:31;12.80;99.90
37242;DHT22;23135;51.078;12.108;2022-09-09T03:49:57;12.80;99.90
37242;DHT22;23135;51.078;12.108;2022-09-09T03:52:23;12.80;99.90
37242;DHT22;23135;51.078;12.108;2022-09-09T03:54:50;12.70;99.90
37242;DHT22;23135;51.078;12.108;2022-09-09T03:57:16;12.70;99.90
37242;DHT22;23135;51.078;12.108;2022-09-09T03:59:43;12.70;99.90
37242;DHT22;23135;51.078;12.108;2022-09-09T04:02:08;12.60;99.90
37242;DHT22;23135;51.078;12.108;2022-09-09T04:04:34;12.70;99.90
37242;DHT22;23135;51.078;12.108;2022-09-09T04:07:00;12.80;99.90
37242;DHT22;23135;51.078;12.108;2022-09-09T04:09:25;12.80;99.90
37242;DHT22;23135;51.078;12.108;2022-09-09T04:11:51;12.80;99.90
37242;DHT22;23135;51.078;12.108;2022-09-09T04:14:18;12.80;99.90
37242;DHT22;23135;51.078;12.108;2022-09-09T04:16:44;12.70;99.90
37242;DHT22;23135;51.078;12.108;2022-09-09T04:19:11;12.80;99.90
37242;DHT22;23135;51.078;12.108;2022-09-09T04:21:40;12.80;99.90
37242;DHT22;23135;51.078;12.108;2022-09-09T04:24:09;12.80;99.90
37242;DHT22;23135;51.078;12.108;2022-09-09T04:26:35;12.80;99.90
37242;DHT22;23135;51.078;12.108;2022-09-09T04:29:02;12.70;99.90
37242;DHT22;23135;51.078;12.108;2022-09-09T04:31:28;12.80;99.90
37242;DHT22;23135;51.078;12.108;2022-09-09T04:33:54;12.80;99.90
37242;DHT22;23135;51.078;12.108;2022-09-09T04:36:20;12.80;99.90
37242;DHT22;23135;51.078;12.108;2022-09-09T04:38:46;12.90;99.90
37242;DHT22;23135;51.078;12.108;2022-09-09T04:41:14;13.10;99.90
37242;DHT22;23135;51.078;12.108;2022-09-09T04:43:40;13.10;99.90
37242;DHT22;23135;51.078;12.108;2022-09-09T04:46:05;13.10;99.90
37242;DHT22;23135;51.078;12.108;2022-09-09T04:48:31;13.10;99.90
37242;DHT22;23135;51.078;12.108;2022-09-09T04:50:58;13.10;99.90
37242;DHT22;23135;51.078;12.108;2022-09-09T04:53:24;13.10;99.90
37242;DHT22;23135;51.078;12.108;2022-09-09T04:55:51;13.10;99.90
37242;DHT22;23135;51.078;12.108;2022-09-09T04:58:17;13.10;99.90
37242;DHT22;23135;51.078;12.108;2022-09-09T05:00:42;13.10;99.90
37242;DHT22;23135;51.078;12.108;2022-09-09T05:03:08;13.10;99.90
37242;DHT22;23135;51.078;12.108;2022-09-09T05:05:34;13.10;99.90
37242;DHT22;23135;51.078;12.108;2022-09-09T05:08:07;13.20;99.90
37242;DHT22;23135;51.078;12.108;2022-09-09T05:10:39;13.20;99.90
37242;DHT22;23135;51.078;12.108;2022-09-09T05:13:05;13.20;99.90
37242;DHT22;23135;51.078;12.108;2022-09-09T05:15:30;13.20;99.90
37242;DHT22;23135;51.078;12.108;2022-09-09T05:18:00;13.20;99.90
37242;DHT22;23135;51.078;12.108;2022-09-09T05:20:27;13.20;99.90
37242;DHT22;23135;51.078;12.108;2022-09-09T05:22:54;13.20;99.90
37242;DHT22;23135;51.078;12.108;2022-09-09T05:25:19;13.30;99.90
37242;DHT22;23135;51.078;12.108;2022-09-09T05:27:45;13.30;99.90
37242;DHT22;23135;51.078;12.108;2022-09-09T05:30:11;13.30;99.90
37242;DHT22;23135;51.078;12.108;2022-09-09T05:32:36;13.30;99.90
37242;DHT22;23135;51.078;12.108;2022-09-09T05:35:02;13.40;99.90
37242;DHT22;23135;51.078;12.108;2022-09-09T05:37:28;13.40;99.90
37242;DHT22;23135;51.078;12.108;2022-09-09T05:39:55;13.40;99.90
37242;DHT22;23135;51.078;12.108;2022-09-09T05:42:21;13.50;99.90
37242;DHT22;23135;51.078;12.108;2022-09-09T05:44:46;13.60;99.90
37242;DHT22;23135;51.078;12.108;2022-09-09T05:47:13;13.60;99.90
37242;DHT22;23135;51.078;12.108;2022-09-09T05:49:40;13.70;99.90
37242;DHT22;23135;51.078;12.108;2022-09-09T05:52:05;13.80;99.90
37242;DHT22;23135;51.078;12.108;2022-09-09T05:54:31;13.90;99.90
37242;DHT22;23135;51.078;12.108;2022-09-09T05:56:57;13.90;99.90
37242;DHT22;23135;51.078;12.108;2022-09-09T05:59:23;14.00;99.90
37242;DHT22;23135;51.078;12.108;2022-09-09T06:01:49;14.10;99.90
37242;DHT22;23135;51.078;12.108;2022-09-09T06:04:14;14.20;99.90
37242;DHT22;23135;51.078;12.108;2022-09-09T06:06:40;14.20;99.90
37242;DHT22;23135;51.078;12.108;2022-09-09T06:09:08;14.20;99.90
37242;DHT22;23135;51.078;12.108;2022-09-09T06:11:39;14.30;99.90
37242;DHT22;23135;51.078;12.108;2022-09-09T06:14:05;14.40;99.90
37242;DHT22;23135;51.078;12.108;2022-09-09T06:16:32;14.40;99.90
37242;DHT22;23135;51.078;12.108;2022-09-09T06:19:01;14.50;99.90
37242;DHT22;23135;51.078;12.108;2022-09-09T06:21:36;14.60;99.90
37242;DHT22;23135;51.078;12.108;2022-09-09T06:24:02;14.70;99.90
37242;DHT22;23135;51.078;12.108;2022-09-09T06:26:33;14.70;99.90
37242;DHT22;23135;51.078;12.108;2022-09-09T06:29:01;14.90;99.90
37242;DHT22;23135;51.078;12.108;2022-09-09T06:31:29;14.90;99.90
37242;DHT22;23135;51.078;12.108;2022-09-09T06:33:56;15.00;99.90
37242;DHT22;23135;51.078;12.108;2022-09-09T06:36:24;15.10;99.90
37242;DHT22;23135;51.078;12.108;2022-09-09T06:38:50;15.20;99.90
37242;DHT22;23135;51.078;12.108;2022-09-09T06:41:18;15.30;99.90
37242;DHT22;23135;51.078;12.108;2022-09-09T06:43:44;15.30;99.90
37242;DHT22;23135;51.078;12.108;2022-09-09T06:46:12;15.30;99.90
37242;DHT22;23135;51.078;12.108;2022-09-09T06:48:42;15.30;99.90
37242;DHT22;23135;51.078;12.108;2022-09-09T06:53:40;15.50;99.90
37242;DHT22;23135;51.078;12.108;2022-09-09T06:56:23;15.50;99.90
37242;DHT22;23135;51.078;12.108;2022-09-09T06:58:50;15.50;99.90
37242;DHT22;23135;51.078;12.108;2022-09-09T07:01:24;15.50;99.90
37242;DHT22;23135;51.078;12.108;2022-09-09T07:03:52;15.60;99.90
37242;DHT22;23135;51.078;12.108;2022-09-09T07:06:26;15.60;99.90
37242;DHT22;23135;51.078;12.108;2022-09-09T07:08:55;15.60;99.90
37242;DHT22;23135;51.078;12.108;2022-09-09T07:11:23;15.60;99.90
37242;DHT22;23135;51.078;12.108;2022-09-09T07:13:49;15.60;99.90
37242;DHT22;23135;51.078;12.108;2022-09-09T07:16:17;15.70;99.90
37242;DHT22;23135;51.078;12.108;2022-09-09T07:18:43;16.00;99.90
37242;DHT22;23135;51.078;12.108;2022-09-09T07:21:11;16.20;99.90
37242;DHT22;23135;51.078;12.108;2022-09-09T07:23:37;16.40;99.90
37242;DHT22;23135;51.078;12.108;2022-09-09T07:26:08;16.70;99.90
37242;DHT22;23135;51.078;12.108;2022-09-09T07:28:34;16.80;99.90
37242;DHT22;23135;51.078;12.108;2022-09-09T07:31:00;16.90;99.90
37242;DHT22;23135;51.078;12.108;2022-09-09T07:33:28;17.00;99.90
37242;DHT22;23135;51.078;12.108;2022-09-09T07:36:03;17.10;99.90
37242;DHT22;23135;51.078;12.108;2022-09-09T07:38:29;17.30;99.90
37242;DHT22;23135;51.078;12.108;2022-09-09T07:41:03;17.40;99.90
37242;DHT22;23135;51.078;12.108;2022-09-09T07:43:29;17.60;99.90
37242;DHT22;23135;51.078;12.108;2022-09-09T07:45:58;17.70;99.90
37242;DHT22;23135;51.078;12.108;2022-09-09T07:48:24;17.90;99.90
37242;DHT22;23135;51.078;12.108;2022-09-09T07:50:50;18.10;99.90
37242;DHT22;23135;51.078;12.108;2022-09-09T07:53:16;18.00;99.90
37242;DHT22;23135;51.078;12.108;2022-09-09T07:55:41;18.00;99.90
37242;DHT22;23135;51.078;12.108;2022-09-09T07:58:08;18.00;99.90
37242;DHT22;23135;51.078;12.108;2022-09-09T08:00:33;18.10;99.90
37242;DHT22;23135;51.078;12.108;2022-09-09T08:02:59;18.00;99.90
37242;DHT22;23135;51.078;12.108;2022-09-09T08:05:27;18.10;99.90
37242;DHT22;23135;51.078;12.108;2022-09-09T08:07:53;18.40;99.90
37242;DHT22;23135;51.078;12.108;2022-09-09T08:10:19;18.50;99.90
37242;DHT22;23135;51.078;12.108;2022-09-09T08:12:44;18.80;99.90
37242;DHT22;23135;51.078;12.108;2022-09-09T08:15:10;18.70;99.90
37242;DHT22;23135;51.078;12.108;2022-09-09T08:17:36;18.70;99.90
37242;DHT22;23135;51.078;12.108;2022-09-09T08:20:03;18.50;99.90
37242;DHT22;23135;51.078;12.108;2022-09-09T08:22:31;18.40;99.90
37242;DHT22;23135;51.078;12.108;2022-09-09T08:24:56;18.40;99.90
37242;DHT22;23135;51.078;12.108;2022-09-09T08:27:22;18.40;99.90
37242;DHT22;23135;51.078;12.108;2022-09-09T08:29:48;18.70;99.90
37242;DHT22;23135;51.078;12.108;2022-09-09T08:32:14;19.10;99.90
37242;DHT22;23135;51.078;12.108;2022-09-09T08:34:39;19.30;99.90
37242;DHT22;23135;51.078;12.108;2022-09-09T08:37:06;19.30;99.90
37242;DHT22;23135;51.078;12.108;2022-09-09T08:39:31;19.20;99.90
37242;DHT22;23135;51.078;12.108;2022-09-09T08:50:29;18.90;99.90
37242;DHT22;23135;51.078;12.108;2022-09-09T08:53:09;18.90;99.90
37242;DHT22;23135;51.078;12.108;2022-09-09T08:55:48;18.80;99.90
37242;DHT22;23135;51.078;12.108;2022-09-09T09:11:39;19.40;99.90
37242;DHT22;23135;51.078;12.108;2022-09-09T09:14:11;19.70;99.90
37242;DHT22;23135;51.078;12.108;2022-09-09T09:17:04;19.80;99.90
37242;DHT22;23135;51.078;12.108;2022-09-09T09:19:33;19.90;99.90
37242;DHT22;23135;51.078;12.108;2022-09-09T09:28:11;19.70;99.90
37242;DHT22;23135;51.078;12.108;2022-09-09T09:30:47;20.00;99.90
37242;DHT22;23135;51.078;12.108;2022-09-09T09:35:52;20.40;99.90
37242;DHT22;23135;51.078;12.108;2022-09-09T09:38:24;20.40;99.90
37242;DHT22;23135;51.078;12.108;2022-09-09T09:40:55;20.40;99.90
37242;DHT22;23135;51.078;12.108;2022-09-09T09:43:36;20.60;99.90
37242;DHT22;23135;51.078;12.108;2022-09-09T09:46:16;21.00;99.90
37242;DHT22;23135;51.078;12.108;2022-09-09T09:48:42;21.40;99.90
37242;DHT22;23135;51.078;12.108;2022-09-09T09:51:13;21.40;99.90
37242;DHT22;23135;51.078;12.108;2022-09-09T09:53:41;21.70;99.90
37242;DHT22;23135;51.078;12.108;2022-09-09T09:56:10;22.10;99.90
37242;DHT22;23135;51.078;12.108;2022-09-09T09:58:56;22.60;99.90
37242;DHT22;23135;51.078;12.108;2022-09-09T10:01:28;22.50;99.90
37242;DHT22;23135;51.078;12.108;2022-09-09T10:04:17;22.30;99.90
37242;DHT22;23135;51.078;12.108;2022-09-09T10:06:44;22.40;99.90
37242;DHT22;23135;51.078;12.108;2022-09-09T10:09:27;22.50;99.90
37242;DHT22;23135;51.078;12.108;2022-09-09T10:12:19;22.80;99.90
37242;DHT22;23135;51.078;12.108;2022-09-09T10:15:01;22.70;99.90
37242;DHT22;23135;51.078;12.108;2022-09-09T10:20:36;23.00;99.90
37242;DHT22;23135;51.078;12.108;2022-09-09T10:23:21;22.80;99.90
37242;DHT22;23135;51.078;12.108;2022-09-09T10:26:19;23.10;99.90
37242;DHT22;23135;51.078;12.108;2022-09-09T10:36:47;23.30;99.90
37242;DHT22;23135;51.078;12.108;2022-09-09T10:39:37;22.80;99.90
37242;DHT22;23135;51.078;12.108;2022-09-09T10:42:16;22.60;99.90
37242;DHT22;23135;51.078;12.108;2022-09-09T10:45:10;22.60;99.90
37242;DHT22;23135;51.078;12.108;2022-09-09T10:48:14;22.80;99.90
37242;DHT22;23135;51.078;12.108;2022-09-09T10:51:21;22.90;99.50
37242;DHT22;23135;51.078;12.108;2022-09-09T10:56:35;22.70;99.90
37242;DHT22;23135;51.078;12.108;2022-09-09T10:59:14;22.90;99.90
37242;DHT22;23135;51.078;12.108;2022-09-09T11:01:51;23.50;98.70
37242;DHT22;23135;51.078;12.108;2022-09-09T11:06:49;23.70;98.20
37242;DHT22;23135;51.078;12.108;2022-09-09T11:09:23;23.90;95.90
37242;DHT22;23135;51.078;12.108;2022-09-09T11:11:57;24.00;96.10
37242;DHT22;23135;51.078;12.108;2022-09-09T11:14:30;24.00;96.80
37242;DHT22;23135;51.078;12.108;2022-09-09T11:17:01;23.80;97.30
37242;DHT22;23135;51.078;12.108;2022-09-09T11:19:34;23.70;97.40
37242;DHT22;23135;51.078;12.108;2022-09-09T11:22:12;23.50;98.10
37242;DHT22;23135;51.078;12.108;2022-09-09T11:25:04;23.40;98.60
37242;DHT22;23135;51.078;12.108;2022-09-09T11:27:59;23.90;97.00
37242;DHT22;23135;51.078;12.108;2022-09-09T11:30:45;24.10;96.10
37242;DHT22;23135;51.078;12.108;2022-09-09T11:36:00;24.30;96.40
37242;DHT22;23135;51.078;12.108;2022-09-09T11:38:29;24.80;96.30
37242;DHT22;23135;51.078;12.108;2022-09-09T11:40:59;24.60;94.50
37242;DHT22;23135;51.078;12.108;2022-09-09T11:43:34;24.10;95.50
37242;DHT22;23135;51.078;12.108;2022-09-09T11:46:05;24.20;96.00
37242;DHT22;23135;51.078;12.108;2022-09-09T11:49:00;24.10;95.10
37242;DHT22;23135;51.078;12.108;2022-09-09T11:51:28;23.50;96.70
37242;DHT22;23135;51.078;12.108;2022-09-09T11:53:57;23.40;95.10
37242;DHT22;23135;51.078;12.108;2022-09-09T11:59:04;23.70;95.00
37242;DHT22;23135;51.078;12.108;2022-09-09T12:01:38;24.10;94.20
37242;DHT22;23135;51.078;12.108;2022-09-09T12:04:27;24.30;93.30
37242;DHT22;23135;51.078;12.108;2022-09-09T12:07:03;24.80;93.20
37242;DHT22;23135;51.078;12.108;2022-09-09T12:12:25;25.00;93.60
37242;DHT22;23135;51.078;12.108;2022-09-09T12:14:58;25.00;91.80
37242;DHT22;23135;51.078;12.108;2022-09-09T12:17:26;24.80;92.20
37242;DHT22;23135;51.078;12.108;2022-09-09T12:28:11;24.60;89.90
37242;DHT22;23135;51.078;12.108;2022-09-09T12:33:40;24.40;91.30
37242;DHT22;23135;51.078;12.108;2022-09-09T12:36:19;25.00;90.90
37242;DHT22;23135;51.078;12.108;2022-09-09T12:38:45;25.30;88.50
37242;DHT22;23135;51.078;12.108;2022-09-09T12:41:24;25.40;88.00
37242;DHT22;23135;51.078;12.108;2022-09-09T12:43:51;25.40;88.40
37242;DHT22;23135;51.078;12.108;2022-09-09T12:46:40;25.30;88.20
37242;DHT22;23135;51.078;12.108;2022-09-09T12:49:33;25.50;88.40
37242;DHT22;23135;51.078;12.108;2022-09-09T12:52:17;25.60;86.90
37242;DHT22;23135;51.078;12.108;2022-09-09T12:54:45;25.50;85.00
37242;DHT22;23135;51.078;12.108;2022-09-09T12:57:12;25.40;84.50
37242;DHT22;23135;51.078;12.108;2022-09-09T12:59:41;25.20;82.50
37242;DHT22;23135;51.078;12.108;2022-09-09T13:02:24;24.40;86.20
37242;DHT22;23135;51.078;12.108;2022-09-09T13:04:50;24.10;89.70
37242;DHT22;23135;51.078;12.108;2022-09-09T13:07:17;24.00;87.80
37242;DHT22;23135;51.078;12.108;2022-09-09T13:09:43;23.60;90.80
37242;DHT22;23135;51.078;12.108;2022-09-09T13:12:18;23.20;91.30
37242;DHT22;23135;51.078;12.108;2022-09-09T13:14:47;22.90;91.60
37242;DHT22;23135;51.078;12.108;2022-09-09T13:17:22;22.70;92.40
37242;DHT22;23135;51.078;12.108;2022-09-09T13:19:48;22.60;91.70
37242;DHT22;23135;51.078;12.108;2022-09-09T13:24:46;22.50;92.00
37242;DHT22;23135;51.078;12.108;2022-09-09T13:27:39;22.30;93.30
37242;DHT22;23135;51.078;12.108;2022-09-09T13:32:46;21.70;97.20
37242;DHT22;23135;51.078;12.108;2022-09-09T13:35:24;21.40;98.50
37242;DHT22;23135;51.078;12.108;2022-09-09T13:37:49;21.30;98.70
37242;DHT22;23135;51.078;12.108;2022-09-09T13:40:21;21.20;98.00
37242;DHT22;23135;51.078;12.108;2022-09-09T13:42:50;21.10;98.40
37242;DHT22;23135;51.078;12.108;2022-09-09T13:45:24;21.10;98.70
37242;DHT22;23135;51.078;12.108;2022-09-09T13:47:53;21.00;98.90
37242;DHT22;23135;51.078;12.108;2022-09-09T13:52:47;21.20;98.50
37242;DHT22;23135;51.078;12.108;2022-09-09T13:55:13;21.30;98.60
37242;DHT22;23135;51.078;12.108;2022-09-09T13:57:38;21.40;97.70
37242;DHT22;23135;51.078;12.108;2022-09-09T14:00:05;21.50;97.50
37242;DHT22;23135;51.078;12.108;2022-09-09T14:02:32;21.50;97.20
37242;DHT22;23135;51.078;12.108;2022-09-09T14:04:58;21.60;95.60
37242;DHT22;23135;51.078;12.108;2022-09-09T14:07:24;21.60;95.70
37242;DHT22;23135;51.078;12.108;2022-09-09T14:09:50;21.50;94.60
37242;DHT22;23135;51.078;12.108;2022-09-09T14:12:17;21.50;95.20
37242;DHT22;23135;51.078;12.108;2022-09-09T14:14:43;21.50;95.40
37242;DHT22;23135;51.078;12.108;2022-09-09T14:17:09;21.50;96.10
37242;DHT22;23135;51.078;12.108;2022-09-09T14:19:35;21.50;96.00
37242;DHT22;23135;51.078;12.108;2022-09-09T14:22:02;21.40;96.00
37242;DHT22;23135;51.078;12.108;2022-09-09T14:24:27;21.40;95.90
37242;DHT22;23135;51.078;12.108;2022-09-09T14:26:53;21.40;96.10
37242;DHT22;23135;51.078;12.108;2022-09-09T14:29:19;21.30;95.80
37242;DHT22;23135;51.078;12.108;2022-09-09T14:31:45;21.40;95.10
37242;DHT22;23135;51.078;12.108;2022-09-09T14:34:10;21.40;95.40
37242;DHT22;23135;51.078;12.108;2022-09-09T14:36:37;21.60;95.80
37242;DHT22;23135;51.078;12.108;2022-09-09T14:39:03;21.70;94.30
37242;DHT22;23135;51.078;12.108;2022-09-09T14:41:30;22.10;94.50
37242;DHT22;23135;51.078;12.108;2022-09-09T14:43:55;22.70;93.40
37242;DHT22;23135;51.078;12.108;2022-09-09T14:46:21;23.10;92.10
37242;DHT22;23135;51.078;12.108;2022-09-09T14:48:47;23.10;91.00
37242;DHT22;23135;51.078;12.108;2022-09-09T14:51:19;22.70;92.20
37242;DHT22;23135;51.078;12.108;2022-09-09T14:53:45;22.50;92.70
37242;DHT22;23135;51.078;12.108;2022-09-09T14:56:22;22.40;93.00
37242;DHT22;23135;51.078;12.108;2022-09-09T14:58:49;22.80;93.20
37242;DHT22;23135;51.078;12.108;2022-09-09T15:01:18;23.10;92.50
37242;DHT22;23135;51.078;12.108;2022-09-09T15:03:55;23.20;92.80
37242;DHT22;23135;51.078;12.108;2022-09-09T15:06:23;23.10;93.20
37242;DHT22;23135;51.078;12.108;2022-09-09T15:08:51;23.10;92.90
37242;DHT22;23135;51.078;12.108;2022-09-09T15:11:17;23.20;92.30
37242;DHT22;23135;51.078;12.108;2022-09-09T15:13:43;23.10;92.60
37242;DHT22;23135;51.078;12.108;2022-09-09T15:16:17;23.10;92.80
37242;DHT22;23135;51.078;12.108;2022-09-09T15:18:44;23.00;93.30
37242;DHT22;23135;51.078;12.108;2022-09-09T15:21:15;22.80;94.10
37242;DHT22;23135;51.078;12.108;2022-09-09T15:23:42;22.60;94.60
37242;DHT22;23135;51.078;12.108;2022-09-09T15:26:09;22.60;95.30
37242;DHT22;23135;51.078;12.108;2022-09-09T15:28:36;22.50;94.40
37242;DHT22;23135;51.078;12.108;2022-09-09T15:31:10;22.30;93.70
37242;DHT22;23135;51.078;12.108;2022-09-09T15:33:36;22.10;93.30
37242;DHT22;23135;51.078;12.108;2022-09-09T15:38:46;22.00;92.30
37242;DHT22;23135;51.078;12.108;2022-09-09T15:41:13;22.00;92.30
37242;DHT22;23135;51.078;12.108;2022-09-09T15:43:39;21.90;92.30
37242;DHT22;23135;51.078;12.108;2022-09-09T15:46:35;21.80;93.00
37242;DHT22;23135;51.078;12.108;2022-09-09T15:49:22;21.90;94.20
37242;DHT22;23135;51.078;12.108;2022-09-09T15:51:53;21.80;93.40
37242;DHT22;23135;51.078;12.108;2022-09-09T15:54:20;21.80;93.10
37242;DHT22;23135;51.078;12.108;2022-09-09T15:56:51;21.70;93.10
37242;DHT22;23135;51.078;12.108;2022-09-09T15:59:17;21.60;93.10
37242;DHT22;23135;51.078;12.108;2022-09-09T16:01:43;21.50;94.20
37242;DHT22;23135;51.078;12.108;2022-09-09T16:04:09;21.20;95.30
37242;DHT22;23135;51.078;12.108;2022-09-09T16:06:35;21.10;94.00
37242;DHT22;23135;51.078;12.108;2022-09-09T16:09:04;21.10;93.90
37242;DHT22;23135;51.078;12.108;2022-09-09T16:11:32;21.00;93.90
37242;DHT22;23135;51.078;12.108;2022-09-09T16:13:58;21.10;93.60
37242;DHT22;23135;51.078;12.108;2022-09-09T16:16:26;21.10;92.80
37242;DHT22;23135;51.078;12.108;2022-09-09T16:18:57;21.00;92.40
37242;DHT22;23135;51.078;12.108;2022-09-09T16:21:26;21.00;92.00
37242;DHT22;23135;51.078;12.108;2022-09-09T16:23:54;20.90;92.10
37242;DHT22;23135;51.078;12.108;2022-09-09T16:26:20;20.80;91.90
37242;DHT22;23135;51.078;12.108;2022-09-09T16:28:46;20.80;92.60
37242;DHT22;23135;51.078;12.108;2022-09-09T16:31:22;20.70;92.40
37242;DHT22;23135;51.078;12.108;2022-09-09T16:33:49;20.50;92.30
37242;DHT22;23135;51.078;12.108;2022-09-09T16:36:17;20.40;92.60
37242;DHT22;23135;51.078;12.108;2022-09-09T16:38:43;20.20;93.10
37242;DHT22;23135;51.078;12.108;2022-09-09T16:41:10;20.00;93.40
37242;DHT22;23135;51.078;12.108;2022-09-09T16:43:36;19.90;93.90
37242;DHT22;23135;51.078;12.108;2022-09-09T16:46:03;19.90;94.00
37242;DHT22;23135;51.078;12.108;2022-09-09T16:48:36;19.80;94.40
37242;DHT22;23135;51.078;12.108;2022-09-09T16:51:06;19.80;94.50
37242;DHT22;23135;51.078;12.108;2022-09-09T16:53:33;19.80;94.70
37242;DHT22;23135;51.078;12.108;2022-09-09T16:56:05;19.70;94.70
37242;DHT22;23135;51.078;12.108;2022-09-09T16:58:31;19.60;95.20
37242;DHT22;23135;51.078;12.108;2022-09-09T17:01:01;19.50;95.50
37242;DHT22;23135;51.078;12.108;2022-09-09T17:03:31;19.40;95.50
37242;DHT22;23135;51.078;12.108;2022-09-09T17:05:57;19.30;96.00
37242;DHT22;23135;51.078;12.108;2022-09-09T17:08:24;19.20;96.50
37242;DHT22;23135;51.078;12.108;2022-09-09T17:10:49;19.10;96.90
37242;DHT22;23135;51.078;12.108;2022-09-09T17:13:15;19.10;97.10
37242;DHT22;23135;51.078;12.108;2022-09-09T17:15:43;19.00;97.20
37242;DHT22;23135;51.078;12.108;2022-09-09T17:18:10;19.00;97.50
37242;DHT22;23135;51.078;12.108;2022-09-09T17:20:40;18.90;98.00
37242;DHT22;23135;51.078;12.108;2022-09-09T17:23:07;18.80;98.40
37242;DHT22;23135;51.078;12.108;2022-09-09T17:25:32;18.70;98.80
37242;DHT22;23135;51.078;12.108;2022-09-09T17:27:59;18.60;99.40
37242;DHT22;23135;51.078;12.108;2022-09-09T17:30:25;18.40;99.90
37242;DHT22;23135;51.078;12.108;2022-09-09T17:32:51;18.30;99.90
37242;DHT22;23135;51.078;12.108;2022-09-09T17:35:17;18.20;99.90
37242;DHT22;23135;51.078;12.108;2022-09-09T17:37:43;18.20;99.90
37242;DHT22;23135;51.078;12.108;2022-09-09T17:40:09;18.10;99.90
37242;DHT22;23135;51.078;12.108;2022-09-09T17:42:35;18.00;99.90